Time;durP1;ratioP1;P1;durP2;ratioP2;P2;SDS_P1;SDS_P2;PMS_P1;PMS_P2;Temp;Humidity;BMP_temperature;BMP_pressure;BME280_temperature;BME280_humidity;BME280_pressure;Samples;Min_cycle;Max_cycle;Signal;HPM_P1;HPM_P2
2022/07/17 00:00:42;;;;;;;1.97;1.10;;;13.00;99.90;;;;;;4998378;28;20179;-77
2022/07/17 00:03:11;;;;;;;2.57;1.33;;;12.90;99.90;;;;;;5014561;28;20178;-78
2022/07/17 00:05:37;;;;;;;2.17;1.30;;;12.90;99.90;;;;;;4999532;28;20211;-78
2022/07/17 00:08:04;;;;;;;1.53;1.17;;;13.10;99.90;;;;;;5006181;28;20175;-78
2022/07/17 00:10:30;;;;;;;1.70;1.20;;;13.00;99.90;;;;;;4997975;28;20182;-78
2022/07/17 00:12:56;;;;;;;1.80;1.10;;;13.00;99.90;;;;;;4997768;28;20185;-78
2022/07/17 00:15:21;;;;;;;1.67;1.10;;;12.90;99.90;;;;;;4998039;28;20207;-78
2022/07/17 00:17:47;;;;;;;2.13;1.10;;;13.00;99.90;;;;;;5014097;28;20198;-77
2022/07/17 00:20:13;;;;;;;1.80;1.10;;;13.10;99.90;;;;;;4998061;28;20260;-78
2022/07/17 00:22:38;;;;;;;1.57;1.20;;;13.20;99.90;;;;;;4997447;28;20534;-77
2022/07/17 00:25:05;;;;;;;1.37;1.17;;;13.10;99.90;;;;;;5014069;28;20214;-77
2022/07/17 00:27:31;;;;;;;2.13;1.10;;;13.00;99.90;;;;;;5013970;28;20194;-77
2022/07/17 00:29:57;;;;;;;3.73;1.20;;;12.80;99.90;;;;;;4997587;28;20175;-78
2022/07/17 00:32:23;;;;;;;2.27;1.10;;;12.80;99.90;;;;;;4997370;28;20183;-78
2022/07/17 00:34:50;;;;;;;1.13;1.03;;;12.90;99.90;;;;;;4997574;28;20206;-78
2022/07/17 00:37:16;;;;;;;2.10;1.30;;;13.10;99.90;;;;;;4997550;28;20179;-78
2022/07/17 00:39:42;;;;;;;1.73;1.10;;;13.20;99.90;;;;;;5013717;28;20186;-78
2022/07/17 00:42:15;;;;;;;1.40;1.10;;;13.30;99.90;;;;;;4997478;28;20190;-77
2022/07/17 00:44:42;;;;;;;1.70;1.00;;;13.40;99.90;;;;;;4996572;28;20254;-78
2022/07/17 00:47:18;;;;;;;1.67;1.20;;;13.00;99.90;;;;;;5013478;28;20175;-78
2022/07/17 00:49:45;;;;;;;4.07;1.20;;;13.10;99.90;;;;;;4997228;28;20179;-78
2022/07/17 00:52:12;;;;;;;2.10;1.23;;;13.10;99.90;;;;;;4997058;28;20206;-78
2022/07/17 00:54:39;;;;;;;1.67;1.00;;;13.00;99.90;;;;;;5015055;28;20226;-77
2022/07/17 00:57:07;;;;;;;2.57;1.30;;;12.70;99.90;;;;;;5033155;28;20213;-78
2022/07/17 00:59:34;;;;;;;2.47;1.00;;;12.60;99.90;;;;;;5016738;28;20256;-78
2022/07/17 01:02:04;;;;;;;1.43;1.10;;;12.40;99.90;;;;;;5032897;28;20181;-77
2022/07/17 01:04:30;;;;;;;1.37;1.10;;;12.40;99.90;;;;;;5032903;28;20236;-78
2022/07/17 01:06:57;;;;;;;2.40;1.40;;;12.50;99.90;;;;;;5016475;28;20647;-77
2022/07/17 01:09:23;;;;;;;2.17;1.10;;;12.60;99.90;;;;;;4999154;28;20244;-77
2022/07/17 01:11:50;;;;;;;1.50;1.10;;;12.40;99.90;;;;;;5013083;28;20179;-77
2022/07/17 01:14:16;;;;;;;2.37;1.10;;;12.30;99.90;;;;;;4996762;28;20265;-78
2022/07/17 01:16:43;;;;;;;2.30;1.10;;;12.30;99.90;;;;;;4997099;28;20688;-77
2022/07/17 01:19:11;;;;;;;3.47;1.10;;;12.30;99.90;;;;;;5014073;28;20206;-78
2022/07/17 01:21:42;;;;;;;2.20;1.20;;;12.30;99.90;;;;;;4996834;28;20640;-77
2022/07/17 01:24:07;;;;;;;1.50;1.10;;;12.20;99.90;;;;;;4996362;28;20199;-78
2022/07/17 01:26:33;;;;;;;2.90;1.27;;;12.20;99.90;;;;;;4996556;28;20209;-77
2022/07/17 01:28:59;;;;;;;2.93;1.17;;;12.10;99.90;;;;;;5013903;28;20185;-77
2022/07/17 01:31:24;;;;;;;3.00;1.10;;;12.00;99.90;;;;;;4996437;28;20557;-78
2022/07/17 01:33:50;;;;;;;2.53;1.23;;;11.90;99.90;;;;;;5012789;28;20186;-77
2022/07/17 01:36:16;;;;;;;1.43;0.90;;;11.90;99.90;;;;;;5012653;28;20336;-78
2022/07/17 01:38:41;;;;;;;3.17;1.07;;;12.00;99.90;;;;;;5012749;28;20217;-78
2022/07/17 01:41:07;;;;;;;4.13;1.20;;;11.90;99.90;;;;;;4996543;28;20642;-78
2022/07/17 01:43:32;;;;;;;2.50;1.30;;;12.00;99.90;;;;;;5009942;28;20187;-77
2022/07/17 01:45:58;;;;;;;2.43;1.30;;;12.00;99.90;;;;;;5016175;28;20198;-78
2022/07/17 01:48:29;;;;;;;1.63;1.10;;;12.00;99.90;;;;;;5032521;28;20182;-78
2022/07/17 01:50:55;;;;;;;2.10;1.00;;;11.80;99.90;;;;;;5016259;28;20589;-77
2022/07/17 01:53:21;;;;;;;1.20;1.10;;;11.70;99.90;;;;;;5032407;28;20175;-78
2022/07/17 01:55:47;;;;;;;4.27;1.20;;;11.70;99.90;;;;;;5032015;28;20198;-77
2022/07/17 01:58:13;;;;;;;1.87;1.20;;;11.60;99.90;;;;;;5032481;28;20210;-78
2022/07/17 02:00:39;;;;;;;2.63;1.17;;;11.60;99.90;;;;;;5031985;28;20190;-77
2022/07/17 02:03:05;;;;;;;1.73;1.20;;;11.60;99.90;;;;;;5015456;28;20277;-78
2022/07/17 02:05:30;;;;;;;1.77;1.10;;;11.40;99.90;;;;;;4999065;28;20216;-78
2022/07/17 02:07:56;;;;;;;2.50;1.10;;;11.30;99.90;;;;;;5015514;28;20173;-78
2022/07/17 02:10:22;;;;;;;2.40;1.30;;;11.40;99.90;;;;;;5015859;28;20213;-77
2022/07/17 02:12:47;;;;;;;1.30;1.00;;;11.40;99.90;;;;;;5031952;28;20682;-78
2022/07/17 02:15:13;;;;;;;2.27;1.10;;;11.30;99.90;;;;;;5031770;28;20202;-78
2022/07/17 02:17:40;;;;;;;2.80;1.17;;;11.30;99.90;;;;;;5015409;28;20582;-77
2022/07/17 02:20:07;;;;;;;3.97;1.20;;;11.20;99.90;;;;;;5031735;28;20181;-77
2022/07/17 02:22:33;;;;;;;1.83;1.10;;;11.30;99.90;;;;;;5015114;28;20648;-77
2022/07/17 02:24:58;;;;;;;1.20;1.10;;;11.30;99.90;;;;;;5015432;28;20310;-79
2022/07/17 02:27:25;;;;;;;1.40;1.20;;;11.40;99.90;;;;;;4999100;28;20296;-77
2022/07/17 02:29:51;;;;;;;2.17;1.27;;;11.20;99.90;;;;;;5015544;28;20273;-78
2022/07/17 02:32:16;;;;;;;1.80;1.10;;;11.20;99.90;;;;;;5015127;28;20179;-77
2022/07/17 02:34:42;;;;;;;2.47;1.30;;;11.30;99.90;;;;;;5015289;28;20198;-77
2022/07/17 02:37:07;;;;;;;1.30;1.10;;;11.40;99.90;;;;;;5015190;28;20178;-77
2022/07/17 02:39:33;;;;;;;1.87;1.23;;;11.20;99.90;;;;;;4998856;28;20182;-77
2022/07/17 02:41:59;;;;;;;1.47;1.27;;;11.00;99.90;;;;;;5015199;28;20181;-78
2022/07/17 02:44:24;;;;;;;2.00;1.37;;;10.90;99.90;;;;;;5014842;28;20587;-77
2022/07/17 02:46:50;;;;;;;1.93;1.07;;;10.80;99.90;;;;;;5032713;28;20187;-78
2022/07/17 02:49:15;;;;;;;1.93;1.20;;;10.80;99.90;;;;;;5014465;28;20251;-77
2022/07/17 02:51:41;;;;;;;1.67;1.20;;;10.50;99.90;;;;;;5014865;28;20182;-77
2022/07/17 02:54:06;;;;;;;3.13;1.20;;;10.30;99.90;;;;;;5032463;28;20232;-77
2022/07/17 02:56:32;;;;;;;2.73;1.00;;;10.30;99.90;;;;;;5014937;28;20178;-78
2022/07/17 02:58:58;;;;;;;1.23;1.00;;;10.20;99.90;;;;;;5014846;28;20187;-78
2022/07/17 03:01:24;;;;;;;1.83;0.97;;;10.40;99.90;;;;;;4998470;28;20183;-79
2022/07/17 03:03:49;;;;;;;3.53;1.20;;;10.50;99.90;;;;;;5014577;28;20217;-78
2022/07/17 03:06:15;;;;;;;2.33;1.10;;;10.40;99.90;;;;;;5014716;28;20236;-78
2022/07/17 03:08:40;;;;;;;1.57;1.10;;;10.30;99.90;;;;;;5000368;28;20178;-77
2022/07/17 03:11:06;;;;;;;1.13;1.00;;;10.20;99.90;;;;;;5002666;28;20178;-78
2022/07/17 03:13:32;;;;;;;2.90;1.20;;;10.20;99.90;;;;;;5002206;28;20260;-78
2022/07/17 03:15:57;;;;;;;1.70;1.20;;;10.10;99.90;;;;;;5019068;28;20202;-78
2022/07/17 03:18:23;;;;;;;23.63;2.50;;;10.00;99.90;;;;;;5018683;28;20232;-77
2022/07/17 03:20:48;;;;;;;2.80;1.40;;;9.90;99.90;;;;;;5002242;28;20186;-78
2022/07/17 03:23:14;;;;;;;3.43;1.30;;;9.80;99.90;;;;;;5002259;28;20183;-78
2022/07/17 03:25:39;;;;;;;2.47;1.30;;;9.80;99.90;;;;;;5002425;28;20309;-77
2022/07/17 03:28:06;;;;;;;2.90;1.20;;;9.90;99.90;;;;;;5018426;28;20213;-77
2022/07/17 03:30:31;;;;;;;2.40;1.30;;;9.90;99.90;;;;;;5034888;28;20625;-77
2022/07/17 03:32:57;;;;;;;1.63;1.10;;;9.90;99.90;;;;;;5034675;28;20235;-77
2022/07/17 03:35:23;;;;;;;1.23;1.00;;;10.30;99.90;;;;;;5002161;28;20205;-78
2022/07/17 03:37:48;;;;;;;1.57;1.20;;;10.40;99.90;;;;;;5018222;28;20659;-78
2022/07/17 03:40:14;;;;;;;2.77;1.10;;;10.60;99.90;;;;;;5002021;28;20188;-77
2022/07/17 03:42:40;;;;;;;2.13;1.23;;;10.70;99.90;;;;;;5002146;28;20186;-78
2022/07/17 03:45:06;;;;;;;1.63;1.17;;;10.70;99.90;;;;;;5034515;28;20217;-77
2022/07/17 03:47:32;;;;;;;1.83;1.30;;;10.80;99.90;;;;;;5018083;28;20189;-77
2022/07/17 03:49:57;;;;;;;1.60;1.20;;;10.40;99.90;;;;;;5018155;28;20179;-77
2022/07/17 03:52:23;;;;;;;2.23;1.30;;;10.30;99.90;;;;;;5017913;28;20171;-77
2022/07/17 03:54:48;;;;;;;2.20;1.27;;;10.20;99.90;;;;;;5001830;28;20206;-78
2022/07/17 03:57:14;;;;;;;3.60;1.50;;;10.30;99.90;;;;;;5018200;28;20185;-77
2022/07/17 03:59:40;;;;;;;3.07;1.27;;;10.30;99.90;;;;;;5017942;28;20667;-77
2022/07/17 04:02:05;;;;;;;3.37;1.30;;;10.30;99.90;;;;;;5001348;28;20185;-77
2022/07/17 04:04:31;;;;;;;3.10;1.30;;;10.40;99.90;;;;;;5017917;28;20236;-77
2022/07/17 04:06:56;;;;;;;3.37;1.30;;;10.50;99.90;;;;;;5001735;28;20189;-78
2022/07/17 04:09:22;;;;;;;1.60;1.00;;;10.60;99.90;;;;;;5017738;28;20204;-78
2022/07/17 04:11:47;;;;;;;2.03;1.27;;;10.60;99.90;;;;;;4990149;28;20175;-78
2022/07/17 04:14:13;;;;;;;2.17;1.13;;;10.70;99.90;;;;;;4997913;28;20187;-78
2022/07/17 04:16:39;;;;;;;1.57;1.40;;;10.90;99.90;;;;;;4998364;28;20270;-77
2022/07/17 04:19:04;;;;;;;2.23;1.20;;;10.80;99.90;;;;;;4997424;28;20190;-77
2022/07/17 04:21:30;;;;;;;2.07;1.63;;;10.70;99.90;;;;;;4997215;28;20277;-77
2022/07/17 04:23:55;;;;;;;1.60;1.50;;;10.60;99.90;;;;;;4997644;28;20214;-77
2022/07/17 04:26:21;;;;;;;1.97;1.40;;;10.60;99.90;;;;;;5014157;28;20613;-77
2022/07/17 04:28:46;;;;;;;2.63;1.37;;;10.70;99.90;;;;;;4997713;28;20215;-78
2022/07/17 04:31:13;;;;;;;1.77;1.30;;;;;;;;;;4997571;28;20179;-78
2022/07/17 04:33:39;;;;;;;2.83;1.30;;;;;;;;;;5013865;28;20202;-77
2022/07/17 04:36:05;;;;;;;2.07;1.27;;;;;;;;;;4997680;28;20261;-78
2022/07/17 04:38:31;;;;;;;3.27;1.30;;;;;;;;;;4997973;28;20225;-78
2022/07/17 04:40:57;;;;;;;2.50;1.37;;;;;;;;;;5014060;28;20171;-77
2022/07/17 04:43:23;;;;;;;2.30;1.20;;;;;;;;;;5015674;28;20174;-77
2022/07/17 04:45:49;;;;;;;3.33;1.23;;;;;;;;;;5034834;28;20316;-77
2022/07/17 04:48:15;;;;;;;2.00;1.30;;;;;;;;;;5018483;28;20178;-77
2022/07/17 04:50:41;;;;;;;2.33;1.60;;;;;;;;;;5021903;28;20212;-78
2022/07/17 04:53:07;;;;;;;3.80;1.20;;;;;;;;;;5037556;28;20210;-78
2022/07/17 04:55:33;;;;;;;2.93;1.43;;;;;;;;;;5036824;28;20205;-78
2022/07/17 04:57:59;;;;;;;4.10;1.60;;;;;;;;;;5035488;28;20175;-77
2022/07/17 05:00:25;;;;;;;1.90;1.40;;;;;;;;;;5018291;28;20186;-77
2022/07/17 05:02:51;;;;;;;2.30;1.50;;;;;;;;;;5035549;28;20189;-78
2022/07/17 05:05:18;;;;;;;2.77;1.67;;;;;;;;;;4995564;28;20238;-77
2022/07/17 05:07:44;;;;;;;3.27;1.70;;;;;;;;;;4994104;28;20179;-77
2022/07/17 05:10:10;;;;;;;3.47;1.67;;;;;;;;;;4994040;28;20653;-77
2022/07/17 05:12:36;;;;;;;2.27;1.90;;;;;;;;;;4995378;28;20214;-78
2022/07/17 05:15:02;;;;;;;4.00;1.77;;;;;;;;;;5012860;28;20209;-78
2022/07/17 05:17:28;;;;;;;3.47;1.67;;;;;;;;;;4996449;28;20270;-78
2022/07/17 05:19:54;;;;;;;2.90;1.70;;;;;;;;;;4998267;28;20218;-78
2022/07/17 05:22:21;;;;;;;2.60;2.00;;;;;;;;;;4998187;28;20237;-78
2022/07/17 05:24:47;;;;;;;3.20;1.70;;;;;;;;;;4996809;28;20212;-78
2022/07/17 05:27:13;;;;;;;5.03;1.80;;;;;;;;;;4997246;28;20557;-78
2022/07/17 05:29:39;;;;;;;3.60;1.70;;;;;;;;;;4997609;28;20180;-78
2022/07/17 05:32:05;;;;;;;2.23;1.90;;;;;;;;;;4996764;28;20237;-78
2022/07/17 05:34:31;;;;;;;2.50;1.83;;;;;;;;;;5014319;28;20194;-78
2022/07/17 05:36:57;;;;;;;3.53;1.50;;;;;;;;;;5036856;28;20182;-78
2022/07/17 05:39:23;;;;;;;2.77;1.67;;;;;;;;;;5019920;28;20183;-78
2022/07/17 05:41:49;;;;;;;2.47;1.70;;;;;;;;;;5037844;28;20175;-79
2022/07/17 05:44:14;;;;;;;4.83;2.00;;;;;;;;;;5022822;28;20213;-78
2022/07/17 05:46:40;;;;;;;3.23;1.70;;;;;;;;;;5021406;28;20183;-78
2022/07/17 05:49:06;;;;;;;3.73;1.70;;;;;;;;;;5037652;28;20182;-78
2022/07/17 05:51:32;;;;;;;3.43;1.70;;;;;;;;;;5020596;28;20209;-77
2022/07/17 05:53:58;;;;;;;2.00;1.70;;;;;;;;;;5012861;28;20282;-78
2022/07/17 05:56:24;;;;;;;2.80;2.00;;;;;;;;;;5003131;28;20241;-78
2022/07/17 05:58:50;;;;;;;5.23;1.90;;;;;;;;;;5002411;28;20623;-78
2022/07/17 06:01:16;;;;;;;4.77;1.97;;;;;;;;;;5016493;28;20198;-78
2022/07/17 06:03:42;;;;;;;2.63;1.80;;;;;;;;;;4999764;28;20246;-77
2022/07/17 06:06:08;;;;;;;3.73;2.10;;;;;;;;;;4999062;28;20199;-78
2022/07/17 06:08:34;;;;;;;2.07;1.53;;;;;;;;;;5014691;28;20204;-77
2022/07/17 06:11:00;;;;;;;3.37;1.40;;;;;;;;;;5015956;28;20184;-78
2022/07/17 06:13:26;;;;;;;2.33;1.50;;;;;;;;;;5017726;28;20182;-78
2022/07/17 06:15:52;;;;;;;2.37;1.40;;;;;;;;;;5001636;28;20220;-79
2022/07/17 06:18:18;;;;;;;2.00;1.57;;;;;;;;;;5018365;28;20206;-77
2022/07/17 06:20:44;;;;;;;2.03;1.50;;;;;;;;;;4999385;28;20191;-77
2022/07/17 06:23:10;;;;;;;3.87;1.80;;;;;;;;;;5006254;28;20186;-79
2022/07/17 06:25:36;;;;;;;2.07;1.57;;;;;;;;;;5008611;28;20278;-79
2022/07/17 06:28:02;;;;;;;2.03;1.37;;;;;;;;;;5024412;28;20219;-78
2022/07/17 06:30:28;;;;;;;2.00;1.53;;;;;;;;;;5017270;28;20175;-78
2022/07/17 06:32:54;;;;;;;2.47;1.67;;;;;;;;;;5003703;28;20628;-78
2022/07/17 06:35:20;;;;;;;2.40;1.40;;;;;;;;;;5003639;28;20209;-78
2022/07/17 06:37:46;;;;;;;1.40;1.30;;;;;;;;;;5008111;28;20182;-79
2022/07/17 06:40:12;;;;;;;2.27;1.40;;;;;;;;;;5018672;28;20304;-77
2022/07/17 06:42:38;;;;;;;1.70;1.40;;;;;;;;;;5037585;28;20179;-78
2022/07/17 06:45:04;;;;;;;5.97;2.03;;;;;;;;;;5018606;28;20218;-78
2022/07/17 06:47:30;;;;;;;2.30;1.50;;;;;;;;;;5039875;28;20178;-79
2022/07/17 06:49:56;;;;;;;2.93;1.60;;;;;;;;;;5023192;28;20181;-79
2022/07/17 06:52:22;;;;;;;4.27;1.50;;;;;;;;;;5039485;28;20581;-79
2022/07/17 06:54:48;;;;;;;3.40;1.73;;;14.90;99.90;;;;;;5040135;28;20226;-79
2022/07/17 06:57:13;;;;;;;2.27;1.30;;;14.80;99.90;;;;;;5024017;28;20202;-79
2022/07/17 06:59:40;;;;;;;2.83;1.53;;;14.90;99.90;;;;;;5007615;28;20668;-79
2022/07/17 07:02:06;;;;;;;2.80;1.40;;;14.90;99.90;;;;;;5024413;28;20201;-79
2022/07/17 07:04:31;;;;;;;2.23;1.30;;;15.00;99.90;;;;;;5024331;28;20676;-79
2022/07/17 07:06:57;;;;;;;2.70;1.20;;;15.20;99.90;;;;;;5008054;28;20236;-79
2022/07/17 07:09:23;;;;;;;4.40;1.10;;;15.30;99.90;;;;;;5008130;28;20174;-79
2022/07/17 07:11:48;;;;;;;1.77;1.00;;;15.40;99.90;;;;;;5003440;28;20232;-79
2022/07/17 07:14:14;;;;;;;1.87;1.00;;;15.60;99.90;;;;;;5040431;28;20541;-79
2022/07/17 07:16:40;;;;;;;3.70;1.17;;;15.70;99.90;;;;;;5023710;28;20194;-79
2022/07/17 07:19:05;;;;;;;1.30;0.90;;;15.90;99.90;;;;;;5007372;28;20182;-79
2022/07/17 07:21:31;;;;;;;5.23;1.40;;;16.10;99.90;;;;;;5040179;28;20253;-79
2022/07/17 07:23:56;;;;;;;0.83;0.80;;;16.20;99.90;;;;;;5015232;28;20219;-79
2022/07/17 07:26:23;;;;;;;2.33;0.90;;;16.20;99.90;;;;;;5009490;28;20195;-79
2022/07/17 07:28:48;;;;;;;1.90;1.07;;;16.20;99.90;;;;;;5018983;28;20213;-79
2022/07/17 07:31:16;;;;;;;3.17;1.10;;;16.40;99.90;;;;;;5003617;28;20193;-79
2022/07/17 07:33:42;;;;;;;2.53;0.80;;;16.50;99.90;;;;;;5014416;28;20241;-80
2022/07/17 07:36:08;;;;;;;1.60;0.90;;;16.60;99.90;;;;;;5021719;28;20195;-80
2022/07/17 07:38:33;;;;;;;1.20;0.83;;;16.80;99.90;;;;;;4995763;28;20338;-79
2022/07/17 07:40:59;;;;;;;1.80;0.80;;;16.90;99.90;;;;;;4985746;28;20202;-80
2022/07/17 07:43:25;;;;;;;1.23;0.80;;;17.00;99.90;;;;;;5017393;28;20187;-79
2022/07/17 07:45:50;;;;;;;2.80;1.00;;;17.20;99.90;;;;;;5002075;28;20211;-79
2022/07/17 07:48:16;;;;;;;1.53;0.90;;;17.20;99.90;;;;;;5001784;28;20210;-80
2022/07/17 07:50:42;;;;;;;2.17;1.00;;;17.30;99.90;;;;;;5016592;28;20187;-80
2022/07/17 07:53:07;;;;;;;1.37;0.93;;;17.40;99.90;;;;;;5001632;28;20642;-80
2022/07/17 07:55:33;;;;;;;2.30;1.03;;;17.50;99.90;;;;;;5006407;28;20199;-80
2022/07/17 07:58:07;;;;;;;1.97;0.90;;;17.70;99.90;;;;;;5003051;28;20255;-80
2022/07/17 08:00:32;;;;;;;1.00;0.87;;;17.90;99.90;;;;;;4986146;28;20185;-80
2022/07/17 08:02:58;;;;;;;1.80;0.93;;;18.00;99.90;;;;;;4986047;28;20618;-80
2022/07/17 08:05:24;;;;;;;1.10;0.70;;;18.10;99.90;;;;;;5020110;28;20218;-80
2022/07/17 08:07:50;;;;;;;1.63;0.90;;;18.30;99.90;;;;;;5005013;28;20183;-80
2022/07/17 08:10:15;;;;;;;2.00;1.00;;;18.40;99.90;;;;;;5004263;28;20187;-80
2022/07/17 08:12:41;;;;;;;2.23;1.00;;;18.50;99.90;;;;;;5003622;28;20183;-80
2022/07/17 08:15:07;;;;;;;2.33;1.10;;;18.60;99.90;;;;;;5019499;28;20276;-80
2022/07/17 08:17:32;;;;;;;1.77;0.80;;;18.70;99.90;;;;;;5001374;28;20192;-80
2022/07/17 08:19:58;;;;;;;1.70;0.87;;;18.90;99.90;;;;;;4985019;28;20546;-80
2022/07/17 08:22:24;;;;;;;0.90;0.80;;;19.00;99.90;;;;;;5003780;28;20218;-80
2022/07/17 08:24:49;;;;;;;0.97;0.77;;;19.10;99.90;;;;;;5021210;28;20226;-80
2022/07/17 08:27:15;;;;;;;2.27;0.90;;;19.30;99.90;;;;;;5004259;28;20190;-78
2022/07/17 08:29:40;;;;;;;1.50;0.80;;;19.30;99.90;;;;;;5004042;28;20187;-79
2022/07/17 08:32:06;;;;;;;0.73;0.63;;;19.40;99.90;;;;;;5006085;28;20648;-79
2022/07/17 08:34:32;;;;;;;4.10;0.73;;;19.50;99.90;;;;;;5006116;28;20211;-79
2022/07/17 08:36:57;;;;;;;2.57;0.77;;;19.50;99.80;;;;;;5005848;28;20183;-79
2022/07/17 08:39:23;;;;;;;2.70;1.10;;;19.60;99.90;;;;;;5005369;28;20589;-79
2022/07/17 08:41:49;;;;;;;1.03;0.83;;;19.80;99.10;;;;;;5005516;28;20214;-79
2022/07/17 08:44:14;;;;;;;1.00;0.73;;;19.90;99.10;;;;;;4989446;28;20210;-79
2022/07/17 08:46:41;;;;;;;0.70;0.70;;;20.10;97.80;;;;;;4989541;28;20179;-79
2022/07/17 08:49:07;;;;;;;2.97;1.00;;;20.30;98.40;;;;;;5005179;28;20175;-79
2022/07/17 08:51:34;;;;;;;98.57;11.83;;;20.50;95.80;;;;;;5020932;28;20209;-79
2022/07/17 08:54:00;;;;;;;1.63;0.80;;;20.60;97.10;;;;;;5004687;28;20190;-79
2022/07/17 08:56:27;;;;;;;2.70;1.10;;;20.80;99.10;;;;;;5014748;28;20183;-77
2022/07/17 08:58:52;;;;;;;2.17;1.00;;;21.10;99.40;;;;;;5023889;28;20191;-78
2022/07/17 09:01:19;;;;;;;4.30;1.00;;;21.30;96.00;;;;;;5019193;28;20198;-77
2022/07/17 09:04:08;;;;;;;2.97;1.17;;;21.50;97.30;;;;;;4998240;28;20187;-77
2022/07/17 09:06:34;;;;;;;1.48;0.80;;;21.70;93.90;;;;;;4991134;28;20175;-78
2022/07/17 09:09:01;;;;;;;0.70;0.70;;;21.90;91.20;;;;;;5003055;28;20274;-78
2022/07/17 09:11:29;;;;;;;1.67;0.90;;;22.00;87.90;;;;;;5002044;28;20225;-78
2022/07/17 09:13:55;;;;;;;0.88;0.60;;;22.00;87.60;;;;;;5000799;28;20685;-77
2022/07/17 09:16:21;;;;;;;2.15;0.77;;;22.00;78.90;;;;;;5014713;28;20280;-78
2022/07/17 09:18:49;;;;;;;1.75;0.82;;;21.90;82.50;;;;;;4996924;28;20595;-76
2022/07/17 09:21:23;;;;;;;0.85;0.60;;;22.00;83.80;;;;;;4995942;28;20176;-77
2022/07/17 09:24:03;;;;;;;1.50;0.82;;;22.10;78.30;;;;;;4997743;28;20294;-77
2022/07/17 09:26:29;;;;;;;1.10;0.80;;;22.10;78.10;;;;;;5031327;23;20230;-76
2022/07/17 09:28:55;;;;;;;0.90;0.75;;;22.30;82.30;;;;;;5013093;28;20290;-79
2022/07/17 09:31:26;;;;;;;2.00;1.02;;;22.50;79.30;;;;;;5008383;28;20216;-77
2022/07/17 09:33:51;;;;;;;0.82;0.82;;;22.80;70.70;;;;;;5013898;28;20178;-77
2022/07/17 09:36:17;;;;;;;1.33;0.80;;;22.80;70.60;;;;;;5013045;28;20191;-78
2022/07/17 09:38:44;;;;;;;0.70;0.70;;;22.80;67.00;;;;;;4980538;28;20258;-78
2022/07/17 09:41:17;;;;;;;1.65;0.77;;;22.90;70.80;;;;;;5014052;28;20250;-81
2022/07/17 09:43:44;;;;;;;0.52;0.52;;;23.20;62.30;;;;;;4996305;28;20178;-77
2022/07/17 09:46:13;;;;;;;1.95;0.80;;;23.30;60.50;;;;;;5013031;28;20282;-77
2022/07/17 09:48:47;;;;;;;1.33;0.82;;;23.50;59.80;;;;;;5013866;28;20253;-76
2022/07/17 09:51:18;;;;;;;1.17;0.90;;;23.70;59.50;;;;;;5004161;28;20190;-77
2022/07/17 09:53:47;;;;;;;1.17;0.80;;;23.90;61.30;;;;;;4977515;28;20179;-77
2022/07/17 09:56:15;;;;;;;0.68;0.60;;;23.90;56.90;;;;;;5004023;28;20226;-77
2022/07/17 09:58:44;;;;;;;182.07;10.43;;;23.80;57.60;;;;;;4996087;28;20604;-78
2022/07/17 10:01:10;;;;;;;72.65;9.85;;;23.60;62.80;;;;;;5007987;28;20183;-78
2022/07/17 10:03:36;;;;;;;0.82;0.70;;;23.90;70.40;;;;;;4979510;28;20646;-77
2022/07/17 10:06:03;;;;;;;1.67;1.17;;;24.10;58.40;;;;;;4995965;28;20231;-77
2022/07/17 10:08:31;;;;;;;0.93;0.70;;;24.20;58.00;;;;;;4995970;28;20179;-78
2022/07/17 10:10:56;;;;;;;34.50;1.92;;;24.40;58.80;;;;;;4994991;28;20278;-77
2022/07/17 10:13:22;;;;;;;0.20;0.20;;;24.60;60.20;;;;;;4993032;28;20277;-77
2022/07/17 10:15:49;;;;;;;0.65;0.52;;;24.60;53.10;;;;;;4994093;28;20210;-78
2022/07/17 10:18:14;;;;;;;4.90;0.98;;;24.40;55.40;;;;;;4959974;28;20188;-78
2022/07/17 10:20:40;;;;;;;1.02;0.82;;;24.50;55.60;;;;;;4970414;28;20249;-78
2022/07/17 10:23:14;;;;;;;2.25;0.68;;;24.60;56.30;;;;;;4995407;28;20708;-77
2022/07/17 10:25:39;;;;;;;1.30;0.80;;;24.70;56.70;;;;;;4995270;28;20223;-78
2022/07/17 10:28:07;;;;;;;1.05;0.65;;;24.80;53.90;;;;;;5012250;28;20179;-78
2022/07/17 10:30:33;;;;;;;1.77;0.88;;;24.90;54.90;;;;;;4997585;28;20590;-77
2022/07/17 10:33:04;;;;;;;1.95;0.73;;;25.30;57.70;;;;;;4975910;28;20677;-77
2022/07/17 10:35:50;;;;;;;1.40;0.73;;;25.40;52.50;;;;;;4986311;28;20210;-77
2022/07/17 10:38:16;;;;;;;2.00;0.88;;;25.20;53.50;;;;;;4976129;28;20646;-77
2022/07/17 10:40:42;;;;;;;0.93;0.60;;;25.20;52.90;;;;;;4969027;28;20206;-77
2022/07/17 10:43:09;;;;;;;0.70;0.70;;;25.20;52.50;;;;;;4992154;28;20222;-77
2022/07/17 10:45:44;;;;;;;1.27;0.77;;;25.40;54.70;;;;;;4994779;28;20206;-77
2022/07/17 10:48:19;;;;;;;0.57;0.57;;;25.80;51.90;;;;;;4995635;28;20179;-77
2022/07/17 10:50:55;;;;;;;0.65;0.65;;;25.80;49.20;;;;;;5011722;28;20261;-77
2022/07/17 10:53:35;;;;;;;1.48;0.68;;;25.50;47.90;;;;;;5011783;28;20159;-77
2022/07/17 10:56:05;;;;;;;1.17;0.63;;;25.50;49.30;;;;;;4994619;28;20226;-78
2022/07/17 10:58:33;;;;;;;1.30;0.70;;;25.80;50.20;;;;;;5011729;28;20179;-78
2022/07/17 11:01:12;;;;;;;1.08;0.65;;;26.00;49.30;;;;;;5011316;28;20665;-78
2022/07/17 11:03:42;;;;;;;1.33;0.77;;;25.70;46.10;;;;;;5010995;28;20262;-77
2022/07/17 11:06:23;;;;;;;1.00;0.63;;;25.90;45.30;;;;;;4997741;28;20220;-77
2022/07/17 11:08:51;;;;;;;0.70;0.60;;;26.00;45.20;;;;;;4989619;28;20190;-77
2022/07/17 11:11:20;;;;;;;0.75;0.75;;;26.10;43.20;;;;;;5010448;28;20175;-77
2022/07/17 11:13:46;;;;;;;0.60;0.60;;;26.10;41.40;;;;;;4978633;28;20210;-77
2022/07/17 11:16:12;;;;;;;0.88;0.60;;;26.10;42.40;;;;;;5011376;28;20578;-77
2022/07/17 11:18:47;;;;;;;0.93;0.77;;;26.00;41.50;;;;;;5011088;28;20225;-77
2022/07/17 11:21:13;;;;;;;1.00;0.75;;;26.20;43.30;;;;;;5011340;28;20185;-77
2022/07/17 11:23:51;;;;;;;1.50;0.60;;;26.60;42.50;;;;;;5011518;28;20171;-77
2022/07/17 11:26:17;;;;;;;1.00;0.90;;;27.00;41.70;;;;;;5010920;28;20222;-77
2022/07/17 11:28:44;;;;;;;0.85;0.73;;;27.10;40.10;;;;;;4979228;28;20229;-77
2022/07/17 11:31:21;;;;;;;0.73;0.60;;;27.10;36.60;;;;;;5012024;28;20171;-77
2022/07/17 11:33:54;;;;;;;0.70;0.70;;;26.80;34.10;;;;;;4979463;28;20231;-77
2022/07/17 11:36:35;;;;;;;0.60;0.60;;;26.60;34.00;;;;;;4999231;28;21303;-77
2022/07/17 11:39:06;;;;;;;1.08;0.60;;;26.70;33.20;;;;;;5015365;28;20287;-77
2022/07/17 11:41:41;;;;;;;1.90;0.85;;;26.80;33.70;;;;;;5015329;28;20183;-77
2022/07/17 11:44:15;;;;;;;0.50;0.38;;;27.20;32.60;;;;;;5014965;28;20194;-78
2022/07/17 11:46:43;;;;;;;0.90;0.73;;;27.40;31.60;;;;;;5014399;28;20202;-77
2022/07/17 11:49:09;;;;;;;1.10;0.40;;;27.40;31.10;;;;;;5014813;28;20171;-77
2022/07/17 11:51:43;;;;;;;0.80;0.70;;;27.40;31.30;;;;;;5000240;28;20185;-77
2022/07/17 11:54:16;;;;;;;0.80;0.60;;;27.20;30.10;;;;;;4979039;28;20202;-77
2022/07/17 11:56:50;;;;;;;0.95;0.70;;;27.10;29.00;;;;;;4992337;28;20194;-82
2022/07/17 11:59:25;;;;;;;2.90;0.90;;;27.20;30.00;;;;;;4999679;28;20209;-77
2022/07/17 12:01:50;;;;;;;0.90;0.47;;;27.50;29.70;;;;;;4994353;28;20195;-77
2022/07/17 12:04:16;;;;;;;0.98;0.70;;;27.70;29.10;;;;;;4994994;28;20261;-77
2022/07/17 12:06:42;;;;;;;0.77;0.70;;;28.00;27.90;;;;;;5014558;28;20190;-77
2022/07/17 12:09:08;;;;;;;526.25;42.33;;;27.90;28.90;;;;;;5014890;28;20186;-77
2022/07/17 12:11:45;;;;;;;2.20;1.10;;;28.30;29.10;;;;;;5014055;28;20179;-78
2022/07/17 12:14:11;;;;;;;0.90;0.90;;;28.60;29.60;;;;;;4981505;28;20183;-78
2022/07/17 12:16:37;;;;;;;1.95;1.00;;;28.70;31.10;;;;;;4978385;28;20564;-78
2022/07/17 12:19:15;;;;;;;1.95;1.10;;;28.90;31.30;;;;;;4994557;28;20190;-78
2022/07/17 12:22:02;;;;;;;2.17;1.20;;;29.20;31.00;;;;;;5014462;28;20175;-78
2022/07/17 12:24:41;;;;;;;1.30;0.90;;;29.10;29.80;;;;;;5015117;28;20563;-78
2022/07/17 12:27:09;;;;;;;1.65;0.88;;;29.30;28.80;;;;;;4992016;28;20649;-78
2022/07/17 12:29:35;;;;;;;1.35;1.00;;;29.10;27.50;;;;;;4995646;28;20179;-78
2022/07/17 12:32:09;;;;;;;1.20;1.05;;;28.60;27.10;;;;;;4962265;28;20175;-78
2022/07/17 12:34:38;;;;;;;1.85;1.20;;;28.60;29.10;;;;;;4995637;28;20168;-78
2022/07/17 12:37:04;;;;;;;1.65;1.00;;;28.60;28.60;;;;;;4994473;28;20175;-78
2022/07/17 12:39:30;;;;;;;1.25;1.00;;;28.70;28.30;;;;;;4999075;28;20179;-77
2022/07/17 12:41:57;;;;;;;2.78;1.17;;;28.70;28.10;;;;;;4993143;28;20207;-77
2022/07/17 12:44:22;;;;;;;0.90;0.80;;;29.10;28.90;;;;;;4994134;28;20249;-78
2022/07/17 12:46:48;;;;;;;1.00;0.90;;;29.10;26.90;;;;;;4994485;28;20179;-77
2022/07/17 12:49:13;;;;;;;67.65;4.50;;;28.90;27.10;;;;;;4995165;28;20191;-77
2022/07/17 12:51:39;;;;;;;1.00;0.90;;;28.90;28.00;;;;;;4981292;28;20174;-77
2022/07/17 12:54:05;;;;;;;1.13;0.93;;;28.60;27.50;;;;;;5013233;28;20182;-77
2022/07/17 12:56:30;;;;;;;1.15;0.80;;;28.70;28.30;;;;;;5012139;28;20202;-77
2022/07/17 12:58:56;;;;;;;0.80;0.77;;;29.20;28.20;;;;;;5013391;28;20582;-77
2022/07/17 13:01:21;;;;;;;0.95;0.70;;;29.30;28.00;;;;;;4977729;28;20188;-77
2022/07/17 13:03:47;;;;;;;1.73;0.80;;;29.40;29.00;;;;;;4977646;28;20275;-81